sensor_id;sensor_type;location;lat;lon;timestamp;temperature;humidity
20650;DHT22;10484;48.736;9.332;2023-08-12T00:01:39;22.90;1.00
20650;DHT22;10484;48.736;9.332;2023-08-12T00:04:05;22.80;1.00
20650;DHT22;10484;48.736;9.332;2023-08-12T00:06:31;22.80;1.00
20650;DHT22;10484;48.736;9.332;2023-08-12T00:08:57;22.70;1.00
20650;DHT22;10484;48.736;9.332;2023-08-12T00:11:22;22.70;1.00
20650;DHT22;10484;48.736;9.332;2023-08-12T00:13:48;22.70;1.00
20650;DHT22;10484;48.736;9.332;2023-08-12T00:16:13;22.60;1.00
20650;DHT22;10484;48.736;9.332;2023-08-12T00:18:39;22.60;1.00
20650;DHT22;10484;48.736;9.332;2023-08-12T00:21:08;22.50;1.00
20650;DHT22;10484;48.736;9.332;2023-08-12T00:23:40;22.50;1.00
20650;DHT22;10484;48.736;9.332;2023-08-12T00:26:06;22.50;1.00
20650;DHT22;10484;48.736;9.332;2023-08-12T00:28:33;22.50;1.00
20650;DHT22;10484;48.736;9.332;2023-08-12T00:30:59;22.40;1.00
20650;DHT22;10484;48.736;9.332;2023-08-12T00:33:24;22.40;1.00
20650;DHT22;10484;48.736;9.332;2023-08-12T00:35:50;22.30;1.00
20650;DHT22;10484;48.736;9.332;2023-08-12T00:38:16;22.30;1.00
20650;DHT22;10484;48.736;9.332;2023-08-12T00:40:41;22.20;1.00
20650;DHT22;10484;48.736;9.332;2023-08-12T00:43:07;22.20;1.00
20650;DHT22;10484;48.736;9.332;2023-08-12T00:45:34;22.20;1.00
20650;DHT22;10484;48.736;9.332;2023-08-12T00:48:00;22.20;1.00
20650;DHT22;10484;48.736;9.332;2023-08-12T00:50:26;22.20;1.00
20650;DHT22;10484;48.736;9.332;2023-08-12T00:52:52;22.10;1.00
20650;DHT22;10484;48.736;9.332;2023-08-12T00:55:18;22.10;1.00
20650;DHT22;10484;48.736;9.332;2023-08-12T00:57:43;22.00;1.00
20650;DHT22;10484;48.736;9.332;2023-08-12T01:00:10;22.00;1.00
20650;DHT22;10484;48.736;9.332;2023-08-12T01:02:35;22.00;1.00
20650;DHT22;10484;48.736;9.332;2023-08-12T01:05:01;21.90;1.00
20650;DHT22;10484;48.736;9.332;2023-08-12T01:07:27;21.80;1.00
20650;DHT22;10484;48.736;9.332;2023-08-12T01:09:53;21.80;1.00
20650;DHT22;10484;48.736;9.332;2023-08-12T01:12:24;21.80;1.00
20650;DHT22;10484;48.736;9.332;2023-08-12T01:15:08;21.80;1.00
20650;DHT22;10484;48.736;9.332;2023-08-12T01:17:38;21.80;1.00
20650;DHT22;10484;48.736;9.332;2023-08-12T01:20:06;21.80;1.00
20650;DHT22;10484;48.736;9.332;2023-08-12T01:22:40;21.80;1.00
20650;DHT22;10484;48.736;9.332;2023-08-12T01:25:07;21.80;1.00
20650;DHT22;10484;48.736;9.332;2023-08-12T01:27:35;21.80;1.00
20650;DHT22;10484;48.736;9.332;2023-08-12T01:30:02;21.70;1.00
20650;DHT22;10484;48.736;9.332;2023-08-12T01:35:16;21.60;1.00
20650;DHT22;10484;48.736;9.332;2023-08-12T01:37:43;21.50;1.00
20650;DHT22;10484;48.736;9.332;2023-08-12T01:40:10;21.50;1.00
20650;DHT22;10484;48.736;9.332;2023-08-12T01:42:39;21.50;1.00
20650;DHT22;10484;48.736;9.332;2023-08-12T01:45:05;21.40;1.00
20650;DHT22;10484;48.736;9.332;2023-08-12T01:47:31;21.40;1.00
20650;DHT22;10484;48.736;9.332;2023-08-12T01:49:58;21.40;1.00
20650;DHT22;10484;48.736;9.332;2023-08-12T01:52:24;21.40;1.00
20650;DHT22;10484;48.736;9.332;2023-08-12T01:54:50;21.30;1.00
20650;DHT22;10484;48.736;9.332;2023-08-12T01:57:15;21.30;1.00
20650;DHT22;10484;48.736;9.332;2023-08-12T01:59:41;21.20;1.00
20650;DHT22;10484;48.736;9.332;2023-08-12T02:02:08;21.20;1.00
20650;DHT22;10484;48.736;9.332;2023-08-12T02:04:34;21.20;1.00
20650;DHT22;10484;48.736;9.332;2023-08-12T02:07:02;21.10;1.00
20650;DHT22;10484;48.736;9.332;2023-08-12T02:09:27;21.10;1.00
20650;DHT22;10484;48.736;9.332;2023-08-12T02:11:53;21.10;1.00
20650;DHT22;10484;48.736;9.332;2023-08-12T02:14:18;21.10;1.00
20650;DHT22;10484;48.736;9.332;2023-08-12T02:16:44;21.10;1.00
20650;DHT22;10484;48.736;9.332;2023-08-12T02:19:09;21.10;1.00
20650;DHT22;10484;48.736;9.332;2023-08-12T02:21:35;21.00;1.00
20650;DHT22;10484;48.736;9.332;2023-08-12T02:24:00;21.00;1.00
20650;DHT22;10484;48.736;9.332;2023-08-12T02:26:26;21.00;1.00
20650;DHT22;10484;48.736;9.332;2023-08-12T02:28:52;21.00;1.00
20650;DHT22;10484;48.736;9.332;2023-08-12T02:31:17;21.00;1.00
20650;DHT22;10484;48.736;9.332;2023-08-12T02:33:43;21.00;1.00
20650;DHT22;10484;48.736;9.332;2023-08-12T02:36:09;20.90;1.00
20650;DHT22;10484;48.736;9.332;2023-08-12T02:38:34;20.90;1.00
20650;DHT22;10484;48.736;9.332;2023-08-12T02:41:00;20.90;1.00
20650;DHT22;10484;48.736;9.332;2023-08-12T02:43:26;20.90;1.00
20650;DHT22;10484;48.736;9.332;2023-08-12T02:45:51;20.90;1.00
20650;DHT22;10484;48.736;9.332;2023-08-12T02:48:17;20.90;1.00
20650;DHT22;10484;48.736;9.332;2023-08-12T02:50:43;20.90;1.00
20650;DHT22;10484;48.736;9.332;2023-08-12T02:53:08;20.80;1.00
20650;DHT22;10484;48.736;9.332;2023-08-12T02:55:34;20.80;1.00
20650;DHT22;10484;48.736;9.332;2023-08-12T02:58:00;20.80;1.00
20650;DHT22;10484;48.736;9.332;2023-08-12T03:00:27;20.80;1.00
20650;DHT22;10484;48.736;9.332;2023-08-12T03:02:53;20.80;1.00
20650;DHT22;10484;48.736;9.332;2023-08-12T03:05:19;20.80;1.00
20650;DHT22;10484;48.736;9.332;2023-08-12T03:07:45;20.80;1.00
20650;DHT22;10484;48.736;9.332;2023-08-12T03:10:10;20.70;1.00
20650;DHT22;10484;48.736;9.332;2023-08-12T03:12:36;20.70;1.00
20650;DHT22;10484;48.736;9.332;2023-08-12T03:15:03;20.70;1.00
20650;DHT22;10484;48.736;9.332;2023-08-12T03:17:29;20.70;1.00
20650;DHT22;10484;48.736;9.332;2023-08-12T03:19:54;20.70;1.00
20650;DHT22;10484;48.736;9.332;2023-08-12T03:22:20;20.60;1.00
20650;DHT22;10484;48.736;9.332;2023-08-12T03:24:47;20.60;1.00
20650;DHT22;10484;48.736;9.332;2023-08-12T03:27:13;20.60;1.00
20650;DHT22;10484;48.736;9.332;2023-08-12T03:29:38;20.60;1.00
20650;DHT22;10484;48.736;9.332;2023-08-12T03:32:04;20.60;1.00
20650;DHT22;10484;48.736;9.332;2023-08-12T03:34:29;20.60;1.00
20650;DHT22;10484;48.736;9.332;2023-08-12T03:36:55;20.60;1.00
20650;DHT22;10484;48.736;9.332;2023-08-12T03:39:20;20.60;1.00
20650;DHT22;10484;48.736;9.332;2023-08-12T03:41:46;20.50;1.00
20650;DHT22;10484;48.736;9.332;2023-08-12T03:44:12;20.60;1.00
20650;DHT22;10484;48.736;9.332;2023-08-12T03:46:37;20.60;1.00
20650;DHT22;10484;48.736;9.332;2023-08-12T03:49:03;20.50;1.00
20650;DHT22;10484;48.736;9.332;2023-08-12T03:51:29;20.50;1.00
20650;DHT22;10484;48.736;9.332;2023-08-12T03:53:54;20.50;1.00
20650;DHT22;10484;48.736;9.332;2023-08-12T03:56:20;20.50;1.00
20650;DHT22;10484;48.736;9.332;2023-08-12T03:58:45;20.50;1.00
20650;DHT22;10484;48.736;9.332;2023-08-12T04:01:11;20.50;1.00
20650;DHT22;10484;48.736;9.332;2023-08-12T04:03:36;20.50;1.00
20650;DHT22;10484;48.736;9.332;2023-08-12T04:06:02;20.40;1.00
20650;DHT22;10484;48.736;9.332;2023-08-12T04:08:28;20.40;1.00
20650;DHT22;10484;48.736;9.332;2023-08-12T04:10:54;20.40;1.00
20650;DHT22;10484;48.736;9.332;2023-08-12T04:13:20;20.40;1.00
20650;DHT22;10484;48.736;9.332;2023-08-12T04:15:52;20.50;1.00
20650;DHT22;10484;48.736;9.332;2023-08-12T04:18:21;20.50;1.00
20650;DHT22;10484;48.736;9.332;2023-08-12T04:20:48;20.50;1.00
20650;DHT22;10484;48.736;9.332;2023-08-12T04:23:14;20.50;1.00
20650;DHT22;10484;48.736;9.332;2023-08-12T04:25:40;20.50;1.00
20650;DHT22;10484;48.736;9.332;2023-08-12T04:28:05;20.40;1.00
20650;DHT22;10484;48.736;9.332;2023-08-12T04:30:31;20.40;1.00
20650;DHT22;10484;48.736;9.332;2023-08-12T04:32:56;20.40;1.00
20650;DHT22;10484;48.736;9.332;2023-08-12T04:35:22;20.40;1.00
20650;DHT22;10484;48.736;9.332;2023-08-12T04:37:47;20.50;1.00
20650;DHT22;10484;48.736;9.332;2023-08-12T04:40:13;20.40;1.00
20650;DHT22;10484;48.736;9.332;2023-08-12T04:42:38;20.40;1.00
20650;DHT22;10484;48.736;9.332;2023-08-12T04:45:04;20.40;1.00
20650;DHT22;10484;48.736;9.332;2023-08-12T04:47:30;20.40;1.00
20650;DHT22;10484;48.736;9.332;2023-08-12T04:49:56;20.40;1.00
20650;DHT22;10484;48.736;9.332;2023-08-12T04:52:21;20.40;1.00
20650;DHT22;10484;48.736;9.332;2023-08-12T04:54:47;20.40;1.00
20650;DHT22;10484;48.736;9.332;2023-08-12T04:57:12;20.40;1.00
20650;DHT22;10484;48.736;9.332;2023-08-12T04:59:38;20.40;1.00
20650;DHT22;10484;48.736;9.332;2023-08-12T05:02:04;20.40;1.00
20650;DHT22;10484;48.736;9.332;2023-08-12T05:04:30;20.40;1.00
20650;DHT22;10484;48.736;9.332;2023-08-12T05:06:56;20.40;1.00
20650;DHT22;10484;48.736;9.332;2023-08-12T05:09:21;20.40;1.00
20650;DHT22;10484;48.736;9.332;2023-08-12T05:11:47;20.40;1.00
20650;DHT22;10484;48.736;9.332;2023-08-12T05:14:13;20.30;1.00
20650;DHT22;10484;48.736;9.332;2023-08-12T05:16:38;20.30;1.00
20650;DHT22;10484;48.736;9.332;2023-08-12T05:19:04;20.30;1.00
20650;DHT22;10484;48.736;9.332;2023-08-12T05:21:29;20.30;1.00
20650;DHT22;10484;48.736;9.332;2023-08-12T05:23:55;20.40;1.00
20650;DHT22;10484;48.736;9.332;2023-08-12T05:26:20;20.40;1.00
20650;DHT22;10484;48.736;9.332;2023-08-12T05:28:46;20.40;1.00
20650;DHT22;10484;48.736;9.332;2023-08-12T05:31:12;20.30;1.00
20650;DHT22;10484;48.736;9.332;2023-08-12T05:33:37;20.40;1.00
20650;DHT22;10484;48.736;9.332;2023-08-12T05:36:03;20.40;1.00
20650;DHT22;10484;48.736;9.332;2023-08-12T05:38:29;20.40;1.00
20650;DHT22;10484;48.736;9.332;2023-08-12T05:40:54;20.40;1.00
20650;DHT22;10484;48.736;9.332;2023-08-12T05:43:20;20.50;1.00
20650;DHT22;10484;48.736;9.332;2023-08-12T05:45:45;20.50;1.00
20650;DHT22;10484;48.736;9.332;2023-08-12T05:48:11;20.50;1.00
20650;DHT22;10484;48.736;9.332;2023-08-12T05:50:37;20.50;1.00
20650;DHT22;10484;48.736;9.332;2023-08-12T05:53:02;20.50;1.00
20650;DHT22;10484;48.736;9.332;2023-08-12T05:55:28;20.50;1.00
20650;DHT22;10484;48.736;9.332;2023-08-12T05:57:53;20.50;1.00
20650;DHT22;10484;48.736;9.332;2023-08-12T06:00:19;20.50;1.00
20650;DHT22;10484;48.736;9.332;2023-08-12T06:02:45;20.50;1.00
20650;DHT22;10484;48.736;9.332;2023-08-12T06:05:10;20.50;1.00
20650;DHT22;10484;48.736;9.332;2023-08-12T06:07:36;20.50;1.00
20650;DHT22;10484;48.736;9.332;2023-08-12T06:10:02;20.50;1.00
20650;DHT22;10484;48.736;9.332;2023-08-12T06:12:27;20.50;1.00
20650;DHT22;10484;48.736;9.332;2023-08-12T06:14:53;20.60;1.00
20650;DHT22;10484;48.736;9.332;2023-08-12T06:17:19;20.60;1.00
20650;DHT22;10484;48.736;9.332;2023-08-12T06:19:44;20.60;1.00
20650;DHT22;10484;48.736;9.332;2023-08-12T06:22:10;20.60;1.00
20650;DHT22;10484;48.736;9.332;2023-08-12T06:24:35;20.60;1.00
20650;DHT22;10484;48.736;9.332;2023-08-12T06:27:01;20.60;1.00
20650;DHT22;10484;48.736;9.332;2023-08-12T06:29:26;20.70;1.00
20650;DHT22;10484;48.736;9.332;2023-08-12T06:31:53;20.70;1.00
20650;DHT22;10484;48.736;9.332;2023-08-12T06:34:18;20.70;1.00
20650;DHT22;10484;48.736;9.332;2023-08-12T06:36:44;20.70;1.00
20650;DHT22;10484;48.736;9.332;2023-08-12T06:39:09;20.80;1.00
20650;DHT22;10484;48.736;9.332;2023-08-12T06:41:35;20.80;1.00
20650;DHT22;10484;48.736;9.332;2023-08-12T06:44:00;20.80;1.00
20650;DHT22;10484;48.736;9.332;2023-08-12T06:46:26;20.80;1.00
20650;DHT22;10484;48.736;9.332;2023-08-12T06:48:52;20.80;1.00
20650;DHT22;10484;48.736;9.332;2023-08-12T06:51:17;20.80;1.00
20650;DHT22;10484;48.736;9.332;2023-08-12T06:53:43;20.80;1.00
20650;DHT22;10484;48.736;9.332;2023-08-12T06:56:08;20.90;1.00
20650;DHT22;10484;48.736;9.332;2023-08-12T06:58:34;20.90;1.00
20650;DHT22;10484;48.736;9.332;2023-08-12T07:01:00;20.90;1.00
20650;DHT22;10484;48.736;9.332;2023-08-12T07:03:25;20.90;1.00
20650;DHT22;10484;48.736;9.332;2023-08-12T07:05:53;20.90;1.00
20650;DHT22;10484;48.736;9.332;2023-08-12T07:08:18;21.00;1.00
20650;DHT22;10484;48.736;9.332;2023-08-12T07:10:44;21.00;1.00
20650;DHT22;10484;48.736;9.332;2023-08-12T07:13:10;21.00;1.00
20650;DHT22;10484;48.736;9.332;2023-08-12T07:15:36;21.00;1.00
20650;DHT22;10484;48.736;9.332;2023-08-12T07:18:01;21.10;1.00
20650;DHT22;10484;48.736;9.332;2023-08-12T07:20:27;21.10;1.00
20650;DHT22;10484;48.736;9.332;2023-08-12T07:22:53;21.20;1.00
20650;DHT22;10484;48.736;9.332;2023-08-12T07:25:18;21.20;1.00
20650;DHT22;10484;48.736;9.332;2023-08-12T07:27:44;21.30;1.00
20650;DHT22;10484;48.736;9.332;2023-08-12T07:30:10;21.30;1.00
20650;DHT22;10484;48.736;9.332;2023-08-12T07:32:37;21.40;1.00
20650;DHT22;10484;48.736;9.332;2023-08-12T07:35:03;21.50;1.00
20650;DHT22;10484;48.736;9.332;2023-08-12T07:37:30;21.50;1.00
20650;DHT22;10484;48.736;9.332;2023-08-12T07:39:56;21.60;1.00
20650;DHT22;10484;48.736;9.332;2023-08-12T07:42:21;21.60;1.00
20650;DHT22;10484;48.736;9.332;2023-08-12T07:44:47;21.70;1.00
20650;DHT22;10484;48.736;9.332;2023-08-12T07:47:12;21.80;1.00
20650;DHT22;10484;48.736;9.332;2023-08-12T07:49:38;21.90;1.00
20650;DHT22;10484;48.736;9.332;2023-08-12T07:52:04;22.00;1.00
20650;DHT22;10484;48.736;9.332;2023-08-12T07:54:30;22.00;1.00
20650;DHT22;10484;48.736;9.332;2023-08-12T07:56:55;22.10;1.00
20650;DHT22;10484;48.736;9.332;2023-08-12T07:59:21;22.20;1.00
20650;DHT22;10484;48.736;9.332;2023-08-12T08:01:47;22.20;1.00
20650;DHT22;10484;48.736;9.332;2023-08-12T08:04:12;22.40;1.00
20650;DHT22;10484;48.736;9.332;2023-08-12T08:06:38;22.40;1.00
20650;DHT22;10484;48.736;9.332;2023-08-12T08:09:03;22.50;1.00
20650;DHT22;10484;48.736;9.332;2023-08-12T08:11:30;22.60;1.00
20650;DHT22;10484;48.736;9.332;2023-08-12T08:13:57;22.60;1.00
20650;DHT22;10484;48.736;9.332;2023-08-12T08:16:23;22.70;1.00
20650;DHT22;10484;48.736;9.332;2023-08-12T08:18:49;22.80;1.00
20650;DHT22;10484;48.736;9.332;2023-08-12T08:21:15;23.00;1.00
20650;DHT22;10484;48.736;9.332;2023-08-12T08:23:41;23.10;1.00
20650;DHT22;10484;48.736;9.332;2023-08-12T08:26:07;23.30;1.00
20650;DHT22;10484;48.736;9.332;2023-08-12T08:28:33;23.40;1.00
20650;DHT22;10484;48.736;9.332;2023-08-12T08:30:59;23.50;1.00
20650;DHT22;10484;48.736;9.332;2023-08-12T08:33:26;23.60;1.00
20650;DHT22;10484;48.736;9.332;2023-08-12T08:35:51;23.60;1.00
20650;DHT22;10484;48.736;9.332;2023-08-12T08:38:17;23.60;1.00
20650;DHT22;10484;48.736;9.332;2023-08-12T08:40:42;23.70;1.00
20650;DHT22;10484;48.736;9.332;2023-08-12T08:43:09;23.70;1.00
20650;DHT22;10484;48.736;9.332;2023-08-12T08:45:36;23.80;1.00
20650;DHT22;10484;48.736;9.332;2023-08-12T08:48:02;23.80;1.00
20650;DHT22;10484;48.736;9.332;2023-08-12T08:50:30;23.90;1.00
20650;DHT22;10484;48.736;9.332;2023-08-12T08:52:56;24.00;1.00
20650;DHT22;10484;48.736;9.332;2023-08-12T08:55:22;24.20;1.00
20650;DHT22;10484;48.736;9.332;2023-08-12T08:57:49;24.30;1.00
20650;DHT22;10484;48.736;9.332;2023-08-12T09:00:16;24.30;1.00
20650;DHT22;10484;48.736;9.332;2023-08-12T09:02:44;24.40;1.00
20650;DHT22;10484;48.736;9.332;2023-08-12T09:05:10;24.50;1.00
20650;DHT22;10484;48.736;9.332;2023-08-12T09:07:36;24.60;1.00
20650;DHT22;10484;48.736;9.332;2023-08-12T09:10:03;24.70;1.00
20650;DHT22;10484;48.736;9.332;2023-08-12T09:12:29;24.90;1.00
20650;DHT22;10484;48.736;9.332;2023-08-12T09:14:55;25.00;1.00
20650;DHT22;10484;48.736;9.332;2023-08-12T09:17:21;25.20;1.00
20650;DHT22;10484;48.736;9.332;2023-08-12T09:19:46;25.30;1.00
20650;DHT22;10484;48.736;9.332;2023-08-12T09:22:12;25.40;1.00
20650;DHT22;10484;48.736;9.332;2023-08-12T09:24:38;25.50;1.00
20650;DHT22;10484;48.736;9.332;2023-08-12T09:27:04;25.70;1.00
20650;DHT22;10484;48.736;9.332;2023-08-12T09:29:32;25.80;1.00
20650;DHT22;10484;48.736;9.332;2023-08-12T09:32:18;25.90;1.00
20650;DHT22;10484;48.736;9.332;2023-08-12T09:34:51;26.10;1.00
20650;DHT22;10484;48.736;9.332;2023-08-12T09:37:17;26.20;1.00
20650;DHT22;10484;48.736;9.332;2023-08-12T09:39:44;26.30;1.00
20650;DHT22;10484;48.736;9.332;2023-08-12T09:42:11;26.40;1.00
20650;DHT22;10484;48.736;9.332;2023-08-12T09:44:37;26.50;1.00
20650;DHT22;10484;48.736;9.332;2023-08-12T09:47:03;26.60;1.00
20650;DHT22;10484;48.736;9.332;2023-08-12T09:49:29;26.70;1.00
20650;DHT22;10484;48.736;9.332;2023-08-12T09:51:55;26.90;1.00
20650;DHT22;10484;48.736;9.332;2023-08-12T09:54:21;26.90;1.00
20650;DHT22;10484;48.736;9.332;2023-08-12T09:56:48;27.00;1.00
20650;DHT22;10484;48.736;9.332;2023-08-12T09:59:19;27.10;1.00
20650;DHT22;10484;48.736;9.332;2023-08-12T10:01:49;27.20;1.00
20650;DHT22;10484;48.736;9.332;2023-08-12T10:04:17;27.30;1.00
20650;DHT22;10484;48.736;9.332;2023-08-12T10:06:48;27.30;1.00
20650;DHT22;10484;48.736;9.332;2023-08-12T10:09:15;27.40;1.00
20650;DHT22;10484;48.736;9.332;2023-08-12T10:11:42;27.50;1.00
20650;DHT22;10484;48.736;9.332;2023-08-12T10:14:09;27.50;1.00
20650;DHT22;10484;48.736;9.332;2023-08-12T10:16:36;27.60;1.00
20650;DHT22;10484;48.736;9.332;2023-08-12T10:19:04;27.60;1.00
20650;DHT22;10484;48.736;9.332;2023-08-12T10:21:31;27.70;1.00
20650;DHT22;10484;48.736;9.332;2023-08-12T10:23:59;27.80;1.00
20650;DHT22;10484;48.736;9.332;2023-08-12T10:26:25;27.80;1.00
20650;DHT22;10484;48.736;9.332;2023-08-12T10:28:50;27.80;1.00
20650;DHT22;10484;48.736;9.332;2023-08-12T10:31:16;27.80;1.00
20650;DHT22;10484;48.736;9.332;2023-08-12T10:33:42;27.90;1.00
20650;DHT22;10484;48.736;9.332;2023-08-12T10:36:08;27.90;1.00
20650;DHT22;10484;48.736;9.332;2023-08-12T10:38:34;27.90;1.00
20650;DHT22;10484;48.736;9.332;2023-08-12T10:41:16;27.90;1.00
20650;DHT22;10484;48.736;9.332;2023-08-12T10:46:27;28.00;1.00
20650;DHT22;10484;48.736;9.332;2023-08-12T10:48:58;28.00;1.00
20650;DHT22;10484;48.736;9.332;2023-08-12T10:54:27;28.10;1.00
20650;DHT22;10484;48.736;9.332;2023-08-12T10:59:53;28.20;1.00
20650;DHT22;10484;48.736;9.332;2023-08-12T11:05:08;28.30;1.00
20650;DHT22;10484;48.736;9.332;2023-08-12T11:07:40;28.40;1.00
20650;DHT22;10484;48.736;9.332;2023-08-12T11:10:27;28.40;1.00
20650;DHT22;10484;48.736;9.332;2023-08-12T11:15:35;28.50;1.00
20650;DHT22;10484;48.736;9.332;2023-08-12T11:18:09;28.60;1.00
20650;DHT22;10484;48.736;9.332;2023-08-12T11:20:35;28.70;1.00
20650;DHT22;10484;48.736;9.332;2023-08-12T11:23:03;28.70;1.00
20650;DHT22;10484;48.736;9.332;2023-08-12T11:25:30;28.90;1.00
20650;DHT22;10484;48.736;9.332;2023-08-12T11:27:56;28.90;1.00
20650;DHT22;10484;48.736;9.332;2023-08-12T11:30:22;29.00;1.00
20650;DHT22;10484;48.736;9.332;2023-08-12T11:32:50;29.00;1.00
20650;DHT22;10484;48.736;9.332;2023-08-12T11:35:16;29.10;1.00
20650;DHT22;10484;48.736;9.332;2023-08-12T11:37:44;29.20;1.00
20650;DHT22;10484;48.736;9.332;2023-08-12T11:40:11;29.30;1.00
20650;DHT22;10484;48.736;9.332;2023-08-12T11:42:41;29.30;1.00
20650;DHT22;10484;48.736;9.332;2023-08-12T11:45:07;29.40;1.00
20650;DHT22;10484;48.736;9.332;2023-08-12T11:47:38;29.50;1.00
20650;DHT22;10484;48.736;9.332;2023-08-12T11:50:08;29.60;1.00
20650;DHT22;10484;48.736;9.332;2023-08-12T11:52:35;29.70;1.00
20650;DHT22;10484;48.736;9.332;2023-08-12T11:55:02;29.80;1.00
20650;DHT22;10484;48.736;9.332;2023-08-12T11:57:28;29.90;1.00
20650;DHT22;10484;48.736;9.332;2023-08-12T12:00:14;30.00;1.00
20650;DHT22;10484;48.736;9.332;2023-08-12T12:02:45;30.10;1.00
20650;DHT22;10484;48.736;9.332;2023-08-12T12:05:11;30.20;1.00
20650;DHT22;10484;48.736;9.332;2023-08-12T12:07:37;30.30;1.00
20650;DHT22;10484;48.736;9.332;2023-08-12T12:10:04;30.30;1.00
20650;DHT22;10484;48.736;9.332;2023-08-12T12:12:36;30.40;1.00
20650;DHT22;10484;48.736;9.332;2023-08-12T12:15:02;30.40;1.00
20650;DHT22;10484;48.736;9.332;2023-08-12T12:17:28;30.40;1.00
20650;DHT22;10484;48.736;9.332;2023-08-12T12:19:58;30.40;1.00
20650;DHT22;10484;48.736;9.332;2023-08-12T12:22:28;30.40;1.00
20650;DHT22;10484;48.736;9.332;2023-08-12T12:24:57;30.40;1.00
20650;DHT22;10484;48.736;9.332;2023-08-12T12:27:24;30.40;1.00
20650;DHT22;10484;48.736;9.332;2023-08-12T12:29:50;30.40;1.00
20650;DHT22;10484;48.736;9.332;2023-08-12T12:32:18;30.40;1.00
20650;DHT22;10484;48.736;9.332;2023-08-12T12:34:44;30.40;1.00
20650;DHT22;10484;48.736;9.332;2023-08-12T12:37:09;30.20;1.00
20650;DHT22;10484;48.736;9.332;2023-08-12T12:39:35;30.00;1.00
20650;DHT22;10484;48.736;9.332;2023-08-12T12:42:01;29.90;1.00
20650;DHT22;10484;48.736;9.332;2023-08-12T12:44:27;29.70;1.00
20650;DHT22;10484;48.736;9.332;2023-08-12T12:46:52;29.30;1.00
20650;DHT22;10484;48.736;9.332;2023-08-12T12:49:19;28.90;1.00
20650;DHT22;10484;48.736;9.332;2023-08-12T12:51:45;28.60;1.00
20650;DHT22;10484;48.736;9.332;2023-08-12T12:54:10;28.50;1.00
20650;DHT22;10484;48.736;9.332;2023-08-12T12:56:36;28.50;1.00
20650;DHT22;10484;48.736;9.332;2023-08-12T12:59:01;28.50;1.00
20650;DHT22;10484;48.736;9.332;2023-08-12T13:01:27;28.50;1.00
20650;DHT22;10484;48.736;9.332;2023-08-12T13:03:52;28.50;1.00
20650;DHT22;10484;48.736;9.332;2023-08-12T13:06:18;28.50;1.00
20650;DHT22;10484;48.736;9.332;2023-08-12T13:08:43;28.50;1.00
20650;DHT22;10484;48.736;9.332;2023-08-12T13:11:09;28.50;1.00
20650;DHT22;10484;48.736;9.332;2023-08-12T13:13:35;28.40;1.00
20650;DHT22;10484;48.736;9.332;2023-08-12T13:16:00;28.40;1.00
20650;DHT22;10484;48.736;9.332;2023-08-12T13:18:26;28.40;1.00
20650;DHT22;10484;48.736;9.332;2023-08-12T13:20:51;28.30;1.00
20650;DHT22;10484;48.736;9.332;2023-08-12T13:23:17;28.20;1.00
20650;DHT22;10484;48.736;9.332;2023-08-12T13:25:42;28.00;1.00
20650;DHT22;10484;48.736;9.332;2023-08-12T13:28:08;27.90;1.00
20650;DHT22;10484;48.736;9.332;2023-08-12T13:30:34;27.80;1.00
20650;DHT22;10484;48.736;9.332;2023-08-12T13:33:00;27.80;1.00
20650;DHT22;10484;48.736;9.332;2023-08-12T13:35:26;27.80;1.00
20650;DHT22;10484;48.736;9.332;2023-08-12T13:37:51;27.70;1.00
20650;DHT22;10484;48.736;9.332;2023-08-12T13:40:17;27.60;1.00
20650;DHT22;10484;48.736;9.332;2023-08-12T13:42:43;27.60;1.00
20650;DHT22;10484;48.736;9.332;2023-08-12T13:45:11;27.60;1.00
20650;DHT22;10484;48.736;9.332;2023-08-12T13:47:36;27.50;1.00
20650;DHT22;10484;48.736;9.332;2023-08-12T13:50:03;27.50;1.00
20650;DHT22;10484;48.736;9.332;2023-08-12T13:52:29;27.50;1.00
20650;DHT22;10484;48.736;9.332;2023-08-12T13:54:54;27.40;1.00
20650;DHT22;10484;48.736;9.332;2023-08-12T13:57:20;27.30;1.00
20650;DHT22;10484;48.736;9.332;2023-08-12T13:59:45;27.20;1.00
20650;DHT22;10484;48.736;9.332;2023-08-12T14:02:13;27.20;1.00
20650;DHT22;10484;48.736;9.332;2023-08-12T14:04:38;27.10;1.00
20650;DHT22;10484;48.736;9.332;2023-08-12T14:07:04;27.00;1.00
20650;DHT22;10484;48.736;9.332;2023-08-12T14:09:30;27.00;1.00
20650;DHT22;10484;48.736;9.332;2023-08-12T14:11:57;27.10;1.00
20650;DHT22;10484;48.736;9.332;2023-08-12T14:14:24;27.10;1.00
20650;DHT22;10484;48.736;9.332;2023-08-12T14:16:53;27.20;1.00
20650;DHT22;10484;48.736;9.332;2023-08-12T14:19:18;27.20;1.00
20650;DHT22;10484;48.736;9.332;2023-08-12T14:21:44;27.20;1.00
20650;DHT22;10484;48.736;9.332;2023-08-12T14:24:10;27.30;1.00
20650;DHT22;10484;48.736;9.332;2023-08-12T14:26:35;27.30;1.00
20650;DHT22;10484;48.736;9.332;2023-08-12T14:29:01;27.40;1.00
20650;DHT22;10484;48.736;9.332;2023-08-12T14:31:27;27.30;1.00
20650;DHT22;10484;48.736;9.332;2023-08-12T14:33:52;27.30;1.00
20650;DHT22;10484;48.736;9.332;2023-08-12T14:36:18;27.30;1.00
20650;DHT22;10484;48.736;9.332;2023-08-12T14:38:43;27.40;1.00
20650;DHT22;10484;48.736;9.332;2023-08-12T14:41:09;27.30;1.00
20650;DHT22;10484;48.736;9.332;2023-08-12T14:43:34;27.30;1.00
20650;DHT22;10484;48.736;9.332;2023-08-12T14:46:01;27.30;1.00
20650;DHT22;10484;48.736;9.332;2023-08-12T14:48:26;27.30;1.00
20650;DHT22;10484;48.736;9.332;2023-08-12T14:50:52;27.30;1.00
20650;DHT22;10484;48.736;9.332;2023-08-12T14:53:17;27.40;1.00
20650;DHT22;10484;48.736;9.332;2023-08-12T14:55:43;27.40;1.00
20650;DHT22;10484;48.736;9.332;2023-08-12T14:58:08;27.40;1.00
20650;DHT22;10484;48.736;9.332;2023-08-12T15:00:34;27.40;1.00
20650;DHT22;10484;48.736;9.332;2023-08-12T15:03:00;27.40;1.00
20650;DHT22;10484;48.736;9.332;2023-08-12T15:05:25;27.40;1.00
20650;DHT22;10484;48.736;9.332;2023-08-12T15:07:51;27.40;1.00
20650;DHT22;10484;48.736;9.332;2023-08-12T15:10:16;27.40;1.00
20650;DHT22;10484;48.736;9.332;2023-08-12T15:12:42;27.40;1.00
20650;DHT22;10484;48.736;9.332;2023-08-12T15:15:08;27.30;1.00
20650;DHT22;10484;48.736;9.332;2023-08-12T15:17:33;27.40;1.00
20650;DHT22;10484;48.736;9.332;2023-08-12T15:19:59;27.30;1.00
20650;DHT22;10484;48.736;9.332;2023-08-12T15:22:24;27.40;1.00
20650;DHT22;10484;48.736;9.332;2023-08-12T15:24:50;27.20;1.00
20650;DHT22;10484;48.736;9.332;2023-08-12T15:27:18;27.10;1.00
20650;DHT22;10484;48.736;9.332;2023-08-12T15:29:43;27.20;1.00
20650;DHT22;10484;48.736;9.332;2023-08-12T15:32:09;27.20;1.00
20650;DHT22;10484;48.736;9.332;2023-08-12T15:34:35;27.10;1.00
20650;DHT22;10484;48.736;9.332;2023-08-12T15:37:00;27.10;1.00
20650;DHT22;10484;48.736;9.332;2023-08-12T15:39:26;27.10;1.00
20650;DHT22;10484;48.736;9.332;2023-08-12T15:41:51;27.10;1.00
20650;DHT22;10484;48.736;9.332;2023-08-12T15:44:17;27.10;1.00
20650;DHT22;10484;48.736;9.332;2023-08-12T15:46:42;27.10;1.00
20650;DHT22;10484;48.736;9.332;2023-08-12T15:49:08;27.10;1.00
20650;DHT22;10484;48.736;9.332;2023-08-12T15:51:40;27.20;1.00
20650;DHT22;10484;48.736;9.332;2023-08-12T15:54:06;27.10;1.00
20650;DHT22;10484;48.736;9.332;2023-08-12T15:56:32;27.00;1.00